sensor_id;sensor_type;location;lat;lon;timestamp;P1;durP1;ratioP1;P2;durP2;ratioP2
58518;SDS011;44310;48.106;12.008;2023-02-28T00:01:30;5.55;;;1.33;;
58518;SDS011;44310;48.106;12.008;2023-02-28T00:03:58;5.00;;;1.10;;
58518;SDS011;44310;48.106;12.008;2023-02-28T00:06:25;5.53;;;1.30;;
58518;SDS011;44310;48.106;12.008;2023-02-28T00:08:52;2.78;;;1.10;;
58518;SDS011;44310;48.106;12.008;2023-02-28T00:11:20;4.40;;;1.15;;
58518;SDS011;44310;48.106;12.008;2023-02-28T00:13:48;2.87;;;1.00;;
58518;SDS011;44310;48.106;12.008;2023-02-28T00:16:19;3.63;;;0.90;;
58518;SDS011;44310;48.106;12.008;2023-02-28T00:18:48;2.30;;;0.80;;
58518;SDS011;44310;48.106;12.008;2023-02-28T00:21:15;4.80;;;1.25;;
58518;SDS011;44310;48.106;12.008;2023-02-28T00:23:43;3.80;;;1.00;;
58518;SDS011;44310;48.106;12.008;2023-02-28T00:26:11;3.13;;;0.90;;
58518;SDS011;44310;48.106;12.008;2023-02-28T00:28:38;2.42;;;0.88;;
58518;SDS011;44310;48.106;12.008;2023-02-28T00:31:05;4.07;;;1.00;;
58518;SDS011;44310;48.106;12.008;2023-02-28T00:33:32;2.63;;;0.77;;
58518;SDS011;44310;48.106;12.008;2023-02-28T00:36:03;1.30;;;0.70;;
58518;SDS011;44310;48.106;12.008;2023-02-28T00:38:32;2.25;;;0.80;;
58518;SDS011;44310;48.106;12.008;2023-02-28T00:40:59;1.90;;;0.60;;
58518;SDS011;44310;48.106;12.008;2023-02-28T00:43:34;2.35;;;0.73;;
58518;SDS011;44310;48.106;12.008;2023-02-28T00:46:03;1.58;;;0.80;;
58518;SDS011;44310;48.106;12.008;2023-02-28T00:48:31;3.28;;;0.80;;
58518;SDS011;44310;48.106;12.008;2023-02-28T00:50:58;10.25;;;1.95;;
58518;SDS011;44310;48.106;12.008;2023-02-28T00:53:26;5.27;;;1.10;;
58518;SDS011;44310;48.106;12.008;2023-02-28T00:55:53;4.22;;;1.00;;
58518;SDS011;44310;48.106;12.008;2023-02-28T00:58:20;7.85;;;1.60;;
58518;SDS011;44310;48.106;12.008;2023-02-28T01:00:48;3.40;;;1.10;;
58518;SDS011;44310;48.106;12.008;2023-02-28T01:03:16;2.83;;;0.90;;
58518;SDS011;44310;48.106;12.008;2023-02-28T01:05:44;5.70;;;1.00;;
58518;SDS011;44310;48.106;12.008;2023-02-28T01:08:12;2.67;;;0.90;;
58518;SDS011;44310;48.106;12.008;2023-02-28T01:10:41;1.85;;;0.80;;
58518;SDS011;44310;48.106;12.008;2023-02-28T01:13:08;3.77;;;0.80;;
58518;SDS011;44310;48.106;12.008;2023-02-28T01:15:36;2.25;;;0.70;;
58518;SDS011;44310;48.106;12.008;2023-02-28T01:18:04;1.85;;;0.60;;
58518;SDS011;44310;48.106;12.008;2023-02-28T01:20:31;1.25;;;0.50;;
58518;SDS011;44310;48.106;12.008;2023-02-28T01:22:58;1.20;;;0.70;;
58518;SDS011;44310;48.106;12.008;2023-02-28T01:25:25;4.07;;;0.90;;
58518;SDS011;44310;48.106;12.008;2023-02-28T01:27:52;5.15;;;1.52;;
58518;SDS011;44310;48.106;12.008;2023-02-28T01:30:19;2.85;;;0.90;;
58518;SDS011;44310;48.106;12.008;2023-02-28T01:32:47;4.18;;;0.90;;
58518;SDS011;44310;48.106;12.008;2023-02-28T01:35:14;1.83;;;0.80;;
58518;SDS011;44310;48.106;12.008;2023-02-28T01:37:41;2.45;;;0.73;;
58518;SDS011;44310;48.106;12.008;2023-02-28T01:40:08;3.20;;;0.80;;
58518;SDS011;44310;48.106;12.008;2023-02-28T01:42:36;2.50;;;0.80;;
58518;SDS011;44310;48.106;12.008;2023-02-28T01:45:08;1.65;;;0.65;;
58518;SDS011;44310;48.106;12.008;2023-02-28T01:47:52;2.43;;;0.67;;
58518;SDS011;44310;48.106;12.008;2023-02-28T01:50:26;1.17;;;0.60;;
58518;SDS011;44310;48.106;12.008;2023-02-28T01:52:56;3.22;;;0.70;;
58518;SDS011;44310;48.106;12.008;2023-02-28T01:55:27;1.60;;;0.60;;
58518;SDS011;44310;48.106;12.008;2023-02-28T01:57:56;1.65;;;0.60;;
58518;SDS011;44310;48.106;12.008;2023-02-28T02:00:26;1.00;;;0.50;;
58518;SDS011;44310;48.106;12.008;2023-02-28T02:02:56;1.67;;;0.52;;
58518;SDS011;44310;48.106;12.008;2023-02-28T02:05:27;1.02;;;0.60;;
58518;SDS011;44310;48.106;12.008;2023-02-28T02:08:02;1.15;;;0.50;;
58518;SDS011;44310;48.106;12.008;2023-02-28T02:10:41;1.20;;;0.50;;
58518;SDS011;44310;48.106;12.008;2023-02-28T02:21:30;0.50;;;0.40;;
58518;SDS011;44310;48.106;12.008;2023-02-28T02:24:11;1.10;;;0.50;;
58518;SDS011;44310;48.106;12.008;2023-02-28T02:27:09;1.80;;;0.50;;
58518;SDS011;44310;48.106;12.008;2023-02-28T02:32:42;4.95;;;1.15;;
58518;SDS011;44310;48.106;12.008;2023-02-28T02:35:47;4.38;;;1.30;;
58518;SDS011;44310;48.106;12.008;2023-02-28T02:38:27;4.90;;;1.17;;
58518;SDS011;44310;48.106;12.008;2023-02-28T02:44:18;6.25;;;1.55;;
58518;SDS011;44310;48.106;12.008;2023-02-28T02:46:59;6.88;;;1.20;;
58518;SDS011;44310;48.106;12.008;2023-02-28T02:49:45;4.43;;;0.90;;
58518;SDS011;44310;48.106;12.008;2023-02-28T02:52:18;4.72;;;1.17;;
58518;SDS011;44310;48.106;12.008;2023-02-28T02:54:48;2.70;;;0.82;;
58518;SDS011;44310;48.106;12.008;2023-02-28T02:57:26;4.25;;;0.85;;
58518;SDS011;44310;48.106;12.008;2023-02-28T03:00:03;2.10;;;0.80;;
58518;SDS011;44310;48.106;12.008;2023-02-28T03:02:35;3.35;;;0.82;;
58518;SDS011;44310;48.106;12.008;2023-02-28T03:05:05;2.67;;;0.80;;
58518;SDS011;44310;48.106;12.008;2023-02-28T03:07:41;2.17;;;0.90;;
58518;SDS011;44310;48.106;12.008;2023-02-28T03:10:27;4.07;;;1.10;;
58518;SDS011;44310;48.106;12.008;2023-02-28T03:13:16;3.20;;;0.82;;
58518;SDS011;44310;48.106;12.008;2023-02-28T03:18:58;4.10;;;1.08;;
58518;SDS011;44310;48.106;12.008;2023-02-28T03:21:34;2.97;;;1.00;;
58518;SDS011;44310;48.106;12.008;2023-02-28T03:26:39;2.35;;;1.00;;
58518;SDS011;44310;48.106;12.008;2023-02-28T03:29:21;4.95;;;0.90;;
58518;SDS011;44310;48.106;12.008;2023-02-28T03:31:58;3.47;;;0.93;;
58518;SDS011;44310;48.106;12.008;2023-02-28T03:34:33;2.13;;;0.90;;
58518;SDS011;44310;48.106;12.008;2023-02-28T03:37:09;4.00;;;0.87;;
58518;SDS011;44310;48.106;12.008;2023-02-28T03:39:43;2.67;;;0.68;;
58518;SDS011;44310;48.106;12.008;2023-02-28T03:42:22;1.27;;;0.77;;
58518;SDS011;44310;48.106;12.008;2023-02-28T03:44:55;1.45;;;0.70;;
58518;SDS011;44310;48.106;12.008;2023-02-28T03:47:26;0.95;;;0.60;;
58518;SDS011;44310;48.106;12.008;2023-02-28T03:49:59;1.63;;;0.60;;
58518;SDS011;44310;48.106;12.008;2023-02-28T03:52:42;1.13;;;0.52;;
58518;SDS011;44310;48.106;12.008;2023-02-28T03:55:13;2.47;;;0.70;;
58518;SDS011;44310;48.106;12.008;2023-02-28T03:57:58;1.88;;;0.77;;
58518;SDS011;44310;48.106;12.008;2023-02-28T04:00:27;2.53;;;0.95;;
58518;SDS011;44310;48.106;12.008;2023-02-28T04:02:59;3.47;;;0.90;;
58518;SDS011;44310;48.106;12.008;2023-02-28T04:05:26;4.05;;;0.98;;
58518;SDS011;44310;48.106;12.008;2023-02-28T04:07:54;5.47;;;1.30;;
58518;SDS011;44310;48.106;12.008;2023-02-28T04:10:29;6.93;;;1.45;;
58518;SDS011;44310;48.106;12.008;2023-02-28T04:12:56;3.50;;;1.00;;
58518;SDS011;44310;48.106;12.008;2023-02-28T04:15:23;7.70;;;1.30;;
58518;SDS011;44310;48.106;12.008;2023-02-28T04:17:51;4.07;;;1.10;;
58518;SDS011;44310;48.106;12.008;2023-02-28T04:20:18;1.88;;;0.80;;
58518;SDS011;44310;48.106;12.008;2023-02-28T04:22:45;3.20;;;0.90;;
58518;SDS011;44310;48.106;12.008;2023-02-28T04:25:12;2.58;;;0.90;;
58518;SDS011;44310;48.106;12.008;2023-02-28T04:27:39;2.35;;;0.90;;
58518;SDS011;44310;48.106;12.008;2023-02-28T04:30:06;3.42;;;1.00;;
58518;SDS011;44310;48.106;12.008;2023-02-28T04:32:34;2.75;;;0.88;;
58518;SDS011;44310;48.106;12.008;2023-02-28T04:35:01;3.22;;;0.73;;
58518;SDS011;44310;48.106;12.008;2023-02-28T04:37:29;1.10;;;0.57;;
58518;SDS011;44310;48.106;12.008;2023-02-28T04:39:56;3.03;;;0.70;;
58518;SDS011;44310;48.106;12.008;2023-02-28T04:42:23;2.47;;;0.80;;
58518;SDS011;44310;48.106;12.008;2023-02-28T04:44:50;1.83;;;0.70;;
58518;SDS011;44310;48.106;12.008;2023-02-28T04:47:17;0.90;;;0.60;;
58518;SDS011;44310;48.106;12.008;2023-02-28T04:49:44;2.85;;;0.70;;
58518;SDS011;44310;48.106;12.008;2023-02-28T04:52:11;1.80;;;0.73;;
58518;SDS011;44310;48.106;12.008;2023-02-28T04:54:39;4.25;;;1.45;;
58518;SDS011;44310;48.106;12.008;2023-02-28T04:57:06;5.45;;;1.25;;
58518;SDS011;44310;48.106;12.008;2023-02-28T04:59:34;2.30;;;0.90;;
58518;SDS011;44310;48.106;12.008;2023-02-28T05:02:01;2.10;;;0.80;;
58518;SDS011;44310;48.106;12.008;2023-02-28T05:04:33;5.00;;;0.90;;
58518;SDS011;44310;48.106;12.008;2023-02-28T05:07:01;2.13;;;0.77;;
58518;SDS011;44310;48.106;12.008;2023-02-28T05:09:29;2.80;;;0.90;;
58518;SDS011;44310;48.106;12.008;2023-02-28T05:11:56;2.00;;;0.80;;
58518;SDS011;44310;48.106;12.008;2023-02-28T05:14:24;2.23;;;0.80;;
58518;SDS011;44310;48.106;12.008;2023-02-28T05:16:52;1.70;;;0.70;;
58518;SDS011;44310;48.106;12.008;2023-02-28T05:19:19;1.50;;;0.60;;
58518;SDS011;44310;48.106;12.008;2023-02-28T05:21:49;1.70;;;0.70;;
58518;SDS011;44310;48.106;12.008;2023-02-28T05:24:18;1.35;;;0.70;;
58518;SDS011;44310;48.106;12.008;2023-02-28T05:26:50;3.63;;;1.35;;
58518;SDS011;44310;48.106;12.008;2023-02-28T05:29:19;2.72;;;1.00;;
58518;SDS011;44310;48.106;12.008;2023-02-28T05:31:46;2.15;;;0.80;;
58518;SDS011;44310;48.106;12.008;2023-02-28T05:34:14;3.33;;;0.82;;
58518;SDS011;44310;48.106;12.008;2023-02-28T05:36:42;1.63;;;0.77;;
58518;SDS011;44310;48.106;12.008;2023-02-28T05:39:09;9.90;;;2.17;;
58518;SDS011;44310;48.106;12.008;2023-02-28T05:41:40;8.50;;;2.00;;
58518;SDS011;44310;48.106;12.008;2023-02-28T05:44:08;7.07;;;1.60;;
58518;SDS011;44310;48.106;12.008;2023-02-28T05:46:35;8.17;;;2.13;;
58518;SDS011;44310;48.106;12.008;2023-02-28T05:49:02;10.73;;;2.30;;
58518;SDS011;44310;48.106;12.008;2023-02-28T05:51:30;11.77;;;2.58;;
58518;SDS011;44310;48.106;12.008;2023-02-28T05:53:58;6.85;;;1.98;;
58518;SDS011;44310;48.106;12.008;2023-02-28T05:56:27;12.80;;;3.08;;
58518;SDS011;44310;48.106;12.008;2023-02-28T05:58:54;9.77;;;2.40;;
58518;SDS011;44310;48.106;12.008;2023-02-28T06:01:35;12.93;;;2.55;;
58518;SDS011;44310;48.106;12.008;2023-02-28T06:04:15;6.38;;;2.00;;
58518;SDS011;44310;48.106;12.008;2023-02-28T06:06:57;6.45;;;1.70;;
58518;SDS011;44310;48.106;12.008;2023-02-28T06:09:25;7.05;;;2.05;;
58518;SDS011;44310;48.106;12.008;2023-02-28T06:11:52;8.57;;;1.73;;
58518;SDS011;44310;48.106;12.008;2023-02-28T06:14:19;8.50;;;1.77;;
58518;SDS011;44310;48.106;12.008;2023-02-28T06:16:47;7.90;;;2.30;;
58518;SDS011;44310;48.106;12.008;2023-02-28T06:19:14;9.02;;;2.10;;
58518;SDS011;44310;48.106;12.008;2023-02-28T06:21:42;9.10;;;2.17;;
58518;SDS011;44310;48.106;12.008;2023-02-28T06:24:09;6.43;;;1.67;;
58518;SDS011;44310;48.106;12.008;2023-02-28T06:26:37;8.50;;;1.80;;
58518;SDS011;44310;48.106;12.008;2023-02-28T06:29:04;5.32;;;1.73;;
58518;SDS011;44310;48.106;12.008;2023-02-28T06:31:31;4.25;;;1.30;;
58518;SDS011;44310;48.106;12.008;2023-02-28T06:33:59;4.30;;;1.35;;
58518;SDS011;44310;48.106;12.008;2023-02-28T06:36:26;2.97;;;1.25;;
58518;SDS011;44310;48.106;12.008;2023-02-28T06:38:54;5.20;;;1.30;;
58518;SDS011;44310;48.106;12.008;2023-02-28T06:41:23;2.90;;;1.10;;
58518;SDS011;44310;48.106;12.008;2023-02-28T06:43:52;3.90;;;1.10;;
58518;SDS011;44310;48.106;12.008;2023-02-28T06:46:19;7.47;;;1.75;;
58518;SDS011;44310;48.106;12.008;2023-02-28T06:48:47;5.30;;;1.30;;
58518;SDS011;44310;48.106;12.008;2023-02-28T06:51:15;3.80;;;1.38;;
58518;SDS011;44310;48.106;12.008;2023-02-28T06:53:46;7.10;;;1.48;;
58518;SDS011;44310;48.106;12.008;2023-02-28T06:56:14;6.28;;;1.65;;
58518;SDS011;44310;48.106;12.008;2023-02-28T06:58:41;5.25;;;1.20;;
58518;SDS011;44310;48.106;12.008;2023-02-28T07:01:13;5.57;;;1.60;;
58518;SDS011;44310;48.106;12.008;2023-02-28T07:03:40;6.27;;;1.87;;
58518;SDS011;44310;48.106;12.008;2023-02-28T07:06:07;5.90;;;1.60;;
58518;SDS011;44310;48.106;12.008;2023-02-28T07:08:35;13.53;;;3.80;;
58518;SDS011;44310;48.106;12.008;2023-02-28T07:11:02;4.10;;;1.55;;
58518;SDS011;44310;48.106;12.008;2023-02-28T07:13:30;4.93;;;1.50;;
58518;SDS011;44310;48.106;12.008;2023-02-28T07:16:01;7.95;;;2.00;;
58518;SDS011;44310;48.106;12.008;2023-02-28T07:18:34;6.20;;;1.92;;
58518;SDS011;44310;48.106;12.008;2023-02-28T07:21:02;6.03;;;1.88;;
58518;SDS011;44310;48.106;12.008;2023-02-28T07:23:31;8.13;;;1.90;;
58518;SDS011;44310;48.106;12.008;2023-02-28T07:25:58;6.70;;;2.10;;
58518;SDS011;44310;48.106;12.008;2023-02-28T07:28:25;5.55;;;1.73;;
58518;SDS011;44310;48.106;12.008;2023-02-28T07:30:52;6.07;;;1.90;;
58518;SDS011;44310;48.106;12.008;2023-02-28T07:33:19;23.30;;;4.40;;
58518;SDS011;44310;48.106;12.008;2023-02-28T07:35:47;12.83;;;3.00;;
58518;SDS011;44310;48.106;12.008;2023-02-28T07:38:14;12.02;;;2.80;;
58518;SDS011;44310;48.106;12.008;2023-02-28T07:40:41;7.90;;;2.53;;
58518;SDS011;44310;48.106;12.008;2023-02-28T07:43:08;21.27;;;4.50;;
58518;SDS011;44310;48.106;12.008;2023-02-28T07:45:35;14.38;;;3.25;;
58518;SDS011;44310;48.106;12.008;2023-02-28T07:48:02;13.52;;;3.22;;
58518;SDS011;44310;48.106;12.008;2023-02-28T07:50:30;11.57;;;2.80;;
58518;SDS011;44310;48.106;12.008;2023-02-28T07:52:58;9.48;;;2.25;;
58518;SDS011;44310;48.106;12.008;2023-02-28T07:55:25;7.80;;;2.25;;
58518;SDS011;44310;48.106;12.008;2023-02-28T07:57:53;8.07;;;2.20;;
58518;SDS011;44310;48.106;12.008;2023-02-28T08:00:20;7.20;;;2.00;;
58518;SDS011;44310;48.106;12.008;2023-02-28T08:02:48;4.45;;;1.73;;
58518;SDS011;44310;48.106;12.008;2023-02-28T08:05:15;5.15;;;1.73;;
58518;SDS011;44310;48.106;12.008;2023-02-28T08:07:45;6.82;;;2.08;;
58518;SDS011;44310;48.106;12.008;2023-02-28T08:10:14;6.20;;;1.70;;
58518;SDS011;44310;48.106;12.008;2023-02-28T08:12:41;6.35;;;2.08;;
58518;SDS011;44310;48.106;12.008;2023-02-28T08:15:08;7.57;;;2.00;;
58518;SDS011;44310;48.106;12.008;2023-02-28T08:17:36;5.50;;;1.73;;
58518;SDS011;44310;48.106;12.008;2023-02-28T08:20:03;7.67;;;2.40;;
58518;SDS011;44310;48.106;12.008;2023-02-28T08:22:30;6.40;;;1.80;;
58518;SDS011;44310;48.106;12.008;2023-02-28T08:24:57;6.85;;;2.03;;
58518;SDS011;44310;48.106;12.008;2023-02-28T08:27:25;6.63;;;1.80;;
58518;SDS011;44310;48.106;12.008;2023-02-28T08:29:52;5.82;;;1.60;;
58518;SDS011;44310;48.106;12.008;2023-02-28T08:32:19;3.15;;;1.30;;
58518;SDS011;44310;48.106;12.008;2023-02-28T08:34:55;4.30;;;1.40;;
58518;SDS011;44310;48.106;12.008;2023-02-28T08:37:23;5.55;;;1.52;;
58518;SDS011;44310;48.106;12.008;2023-02-28T08:39:50;4.85;;;1.50;;
58518;SDS011;44310;48.106;12.008;2023-02-28T08:42:21;4.20;;;1.40;;
58518;SDS011;44310;48.106;12.008;2023-02-28T08:44:49;3.73;;;1.57;;
58518;SDS011;44310;48.106;12.008;2023-02-28T08:47:16;3.10;;;1.30;;
58518;SDS011;44310;48.106;12.008;2023-02-28T08:49:43;2.63;;;1.10;;
58518;SDS011;44310;48.106;12.008;2023-02-28T08:52:10;3.00;;;1.20;;
58518;SDS011;44310;48.106;12.008;2023-02-28T08:54:38;3.45;;;1.30;;
58518;SDS011;44310;48.106;12.008;2023-02-28T08:57:05;3.15;;;1.30;;
58518;SDS011;44310;48.106;12.008;2023-02-28T08:59:32;3.17;;;1.20;;
58518;SDS011;44310;48.106;12.008;2023-02-28T09:01:59;3.90;;;1.27;;
58518;SDS011;44310;48.106;12.008;2023-02-28T09:04:26;4.47;;;1.30;;
58518;SDS011;44310;48.106;12.008;2023-02-28T09:06:57;3.40;;;1.23;;
58518;SDS011;44310;48.106;12.008;2023-02-28T09:09:24;4.35;;;1.33;;
58518;SDS011;44310;48.106;12.008;2023-02-28T09:11:51;3.50;;;1.30;;
58518;SDS011;44310;48.106;12.008;2023-02-28T09:14:18;4.72;;;1.42;;
58518;SDS011;44310;48.106;12.008;2023-02-28T09:16:46;2.95;;;1.17;;
58518;SDS011;44310;48.106;12.008;2023-02-28T09:19:13;4.78;;;1.40;;
58518;SDS011;44310;48.106;12.008;2023-02-28T09:21:40;2.92;;;1.20;;
58518;SDS011;44310;48.106;12.008;2023-02-28T09:24:07;2.95;;;1.08;;
58518;SDS011;44310;48.106;12.008;2023-02-28T09:26:34;1.90;;;1.20;;
58518;SDS011;44310;48.106;12.008;2023-02-28T09:29:13;5.47;;;1.60;;
58518;SDS011;44310;48.106;12.008;2023-02-28T09:31:41;7.15;;;1.80;;
58518;SDS011;44310;48.106;12.008;2023-02-28T09:34:08;9.30;;;1.95;;
58518;SDS011;44310;48.106;12.008;2023-02-28T09:36:35;9.02;;;1.95;;
58518;SDS011;44310;48.106;12.008;2023-02-28T09:39:12;6.85;;;1.80;;
58518;SDS011;44310;48.106;12.008;2023-02-28T09:41:43;4.78;;;1.70;;
58518;SDS011;44310;48.106;12.008;2023-02-28T09:44:25;6.07;;;1.73;;
58518;SDS011;44310;48.106;12.008;2023-02-28T09:47:08;7.73;;;1.73;;
58518;SDS011;44310;48.106;12.008;2023-02-28T09:49:56;4.87;;;1.70;;
58518;SDS011;44310;48.106;12.008;2023-02-28T09:52:29;4.22;;;1.40;;
58518;SDS011;44310;48.106;12.008;2023-02-28T09:55:00;9.00;;;2.08;;
58518;SDS011;44310;48.106;12.008;2023-02-28T09:57:45;22.40;;;4.65;;
58518;SDS011;44310;48.106;12.008;2023-02-28T10:00:23;7.78;;;2.60;;
58518;SDS011;44310;48.106;12.008;2023-02-28T10:03:03;6.40;;;1.60;;
58518;SDS011;44310;48.106;12.008;2023-02-28T10:05:33;6.00;;;1.47;;
58518;SDS011;44310;48.106;12.008;2023-02-28T10:08:16;5.95;;;2.00;;
58518;SDS011;44310;48.106;12.008;2023-02-28T10:10:54;9.77;;;2.65;;
58518;SDS011;44310;48.106;12.008;2023-02-28T10:16:23;6.75;;;1.70;;
58518;SDS011;44310;48.106;12.008;2023-02-28T10:18:57;9.70;;;2.50;;
58518;SDS011;44310;48.106;12.008;2023-02-28T10:21:36;18.77;;;4.17;;
58518;SDS011;44310;48.106;12.008;2023-02-28T10:24:13;21.55;;;5.28;;
58518;SDS011;44310;48.106;12.008;2023-02-28T10:26:56;20.25;;;4.88;;
58518;SDS011;44310;48.106;12.008;2023-02-28T10:29:48;27.47;;;6.10;;
58518;SDS011;44310;48.106;12.008;2023-02-28T10:32:18;34.57;;;7.10;;
58518;SDS011;44310;48.106;12.008;2023-02-28T10:34:55;32.65;;;6.82;;
58518;SDS011;44310;48.106;12.008;2023-02-28T10:37:27;34.65;;;6.85;;
58518;SDS011;44310;48.106;12.008;2023-02-28T10:39:54;26.00;;;6.10;;
58518;SDS011;44310;48.106;12.008;2023-02-28T10:42:27;21.58;;;5.00;;
58518;SDS011;44310;48.106;12.008;2023-02-28T10:48:04;20.17;;;4.90;;
58518;SDS011;44310;48.106;12.008;2023-02-28T10:50:53;14.48;;;4.15;;
58518;SDS011;44310;48.106;12.008;2023-02-28T10:58:50;20.48;;;5.10;;
58518;SDS011;44310;48.106;12.008;2023-02-28T11:03:57;15.80;;;4.40;;
58518;SDS011;44310;48.106;12.008;2023-02-28T11:06:31;21.98;;;4.88;;
58518;SDS011;44310;48.106;12.008;2023-02-28T11:09:04;9.15;;;2.40;;
58518;SDS011;44310;48.106;12.008;2023-02-28T11:11:45;10.75;;;2.83;;
58518;SDS011;44310;48.106;12.008;2023-02-28T11:14:27;6.00;;;2.50;;
58518;SDS011;44310;48.106;12.008;2023-02-28T11:16:57;4.50;;;1.90;;
58518;SDS011;44310;48.106;12.008;2023-02-28T11:19:29;5.50;;;1.88;;
58518;SDS011;44310;48.106;12.008;2023-02-28T11:22:05;11.10;;;2.58;;
58518;SDS011;44310;48.106;12.008;2023-02-28T11:24:33;6.60;;;1.90;;
58518;SDS011;44310;48.106;12.008;2023-02-28T11:27:12;5.85;;;1.90;;
58518;SDS011;44310;48.106;12.008;2023-02-28T11:30:04;6.13;;;2.30;;
58518;SDS011;44310;48.106;12.008;2023-02-28T11:32:54;13.45;;;3.53;;
58518;SDS011;44310;48.106;12.008;2023-02-28T11:35:27;11.15;;;2.70;;
58518;SDS011;44310;48.106;12.008;2023-02-28T11:38:01;7.53;;;2.45;;
58518;SDS011;44310;48.106;12.008;2023-02-28T11:40:35;5.30;;;2.10;;
58518;SDS011;44310;48.106;12.008;2023-02-28T11:43:17;2.67;;;1.42;;
58518;SDS011;44310;48.106;12.008;2023-02-28T11:49:11;3.95;;;1.60;;
58518;SDS011;44310;48.106;12.008;2023-02-28T11:51:49;5.93;;;1.85;;
58518;SDS011;44310;48.106;12.008;2023-02-28T11:57:03;3.30;;;1.52;;
58518;SDS011;44310;48.106;12.008;2023-02-28T12:04:52;3.17;;;1.50;;
58518;SDS011;44310;48.106;12.008;2023-02-28T12:07:55;2.97;;;1.20;;
58518;SDS011;44310;48.106;12.008;2023-02-28T12:10:37;1.70;;;0.93;;
58518;SDS011;44310;48.106;12.008;2023-02-28T12:13:21;2.85;;;1.20;;
58518;SDS011;44310;48.106;12.008;2023-02-28T12:22:20;2.03;;;1.00;;
58518;SDS011;44310;48.106;12.008;2023-02-28T12:24:50;1.92;;;1.00;;
58518;SDS011;44310;48.106;12.008;2023-02-28T12:27:21;1.52;;;1.10;;
58518;SDS011;44310;48.106;12.008;2023-02-28T12:30:13;2.65;;;1.23;;
58518;SDS011;44310;48.106;12.008;2023-02-28T12:33:07;5.72;;;1.50;;
58518;SDS011;44310;48.106;12.008;2023-02-28T12:35:56;3.97;;;1.40;;
58518;SDS011;44310;48.106;12.008;2023-02-28T12:38:34;3.00;;;1.30;;
58518;SDS011;44310;48.106;12.008;2023-02-28T12:41:10;3.78;;;1.20;;
58518;SDS011;44310;48.106;12.008;2023-02-28T12:43:43;2.83;;;1.13;;
58518;SDS011;44310;48.106;12.008;2023-02-28T12:46:17;4.45;;;1.60;;
58518;SDS011;44310;48.106;12.008;2023-02-28T12:48:53;2.40;;;1.17;;
58518;SDS011;44310;48.106;12.008;2023-02-28T12:51:24;4.95;;;1.60;;
58518;SDS011;44310;48.106;12.008;2023-02-28T13:04:41;1.70;;;0.80;;
58518;SDS011;44310;48.106;12.008;2023-02-28T13:10:14;1.00;;;0.80;;
58518;SDS011;44310;48.106;12.008;2023-02-28T13:12:49;0.88;;;0.70;;
58518;SDS011;44310;48.106;12.008;2023-02-28T13:17:48;1.25;;;0.75;;
58518;SDS011;44310;48.106;12.008;2023-02-28T13:20:18;0.87;;;0.70;;
58518;SDS011;44310;48.106;12.008;2023-02-28T13:22:50;0.60;;;0.60;;
58518;SDS011;44310;48.106;12.008;2023-02-28T13:36:06;1.10;;;0.73;;
58518;SDS011;44310;48.106;12.008;2023-02-28T13:49:30;0.60;;;0.60;;
58518;SDS011;44310;48.106;12.008;2023-02-28T13:55:02;1.53;;;0.70;;
58518;SDS011;44310;48.106;12.008;2023-02-28T14:03:01;1.10;;;0.60;;
58518;SDS011;44310;48.106;12.008;2023-02-28T14:05:38;0.68;;;0.68;;
58518;SDS011;44310;48.106;12.008;2023-02-28T14:08:16;0.60;;;0.60;;
58518;SDS011;44310;48.106;12.008;2023-02-28T14:10:48;1.10;;;0.70;;
58518;SDS011;44310;48.106;12.008;2023-02-28T14:16:14;0.60;;;0.60;;
58518;SDS011;44310;48.106;12.008;2023-02-28T14:18:51;0.60;;;0.60;;
58518;SDS011;44310;48.106;12.008;2023-02-28T14:21:43;0.57;;;0.50;;
58518;SDS011;44310;48.106;12.008;2023-02-28T14:27:26;0.93;;;0.60;;
58518;SDS011;44310;48.106;12.008;2023-02-28T14:38:50;2.97;;;1.10;;
58518;SDS011;44310;48.106;12.008;2023-02-28T14:43:51;7.13;;;1.77;;
58518;SDS011;44310;48.106;12.008;2023-02-28T14:46:23;3.55;;;1.30;;
58518;SDS011;44310;48.106;12.008;2023-02-28T14:48:55;2.73;;;1.20;;
58518;SDS011;44310;48.106;12.008;2023-02-28T14:51:23;3.45;;;1.10;;
58518;SDS011;44310;48.106;12.008;2023-02-28T14:53:57;3.92;;;1.10;;
58518;SDS011;44310;48.106;12.008;2023-02-28T14:56:30;4.57;;;1.10;;
58518;SDS011;44310;48.106;12.008;2023-02-28T14:59:23;1.77;;;0.80;;
58518;SDS011;44310;48.106;12.008;2023-02-28T15:04:55;0.73;;;0.70;;
58518;SDS011;44310;48.106;12.008;2023-02-28T15:07:28;2.00;;;0.90;;
58518;SDS011;44310;48.106;12.008;2023-02-28T15:12:41;7.75;;;2.25;;
58518;SDS011;44310;48.106;12.008;2023-02-28T15:15:19;10.75;;;3.00;;
58518;SDS011;44310;48.106;12.008;2023-02-28T15:17:57;14.60;;;3.20;;
58518;SDS011;44310;48.106;12.008;2023-02-28T15:20:26;16.20;;;4.13;;
58518;SDS011;44310;48.106;12.008;2023-02-28T15:22:54;29.00;;;6.55;;
58518;SDS011;44310;48.106;12.008;2023-02-28T15:25:23;25.47;;;5.90;;
58518;SDS011;44310;48.106;12.008;2023-02-28T15:27:52;40.67;;;7.40;;
58518;SDS011;44310;48.106;12.008;2023-02-28T15:30:25;31.75;;;5.93;;
58518;SDS011;44310;48.106;12.008;2023-02-28T15:33:02;38.58;;;8.52;;
58518;SDS011;44310;48.106;12.008;2023-02-28T15:35:46;18.63;;;4.70;;
58518;SDS011;44310;48.106;12.008;2023-02-28T15:38:21;18.75;;;4.75;;
58518;SDS011;44310;48.106;12.008;2023-02-28T15:40:53;47.90;;;10.65;;
58518;SDS011;44310;48.106;12.008;2023-02-28T15:46:02;25.92;;;6.10;;
58518;SDS011;44310;48.106;12.008;2023-02-28T15:48:37;29.03;;;6.17;;
58518;SDS011;44310;48.106;12.008;2023-02-28T15:51:16;18.30;;;4.35;;
58518;SDS011;44310;48.106;12.008;2023-02-28T15:53:59;15.48;;;3.80;;
58518;SDS011;44310;48.106;12.008;2023-02-28T15:56:32;12.10;;;3.45;;
58518;SDS011;44310;48.106;12.008;2023-02-28T15:59:15;11.30;;;2.85;;
58518;SDS011;44310;48.106;12.008;2023-02-28T16:01:58;11.85;;;3.05;;
58518;SDS011;44310;48.106;12.008;2023-02-28T16:07:27;9.18;;;3.03;;
58518;SDS011;44310;48.106;12.008;2023-02-28T16:09:54;12.40;;;3.03;;
58518;SDS011;44310;48.106;12.008;2023-02-28T16:12:24;9.10;;;2.65;;
58518;SDS011;44310;48.106;12.008;2023-02-28T16:14:54;12.48;;;3.30;;
58518;SDS011;44310;48.106;12.008;2023-02-28T16:17:25;8.45;;;2.40;;
58518;SDS011;44310;48.106;12.008;2023-02-28T16:19:54;10.45;;;2.70;;
58518;SDS011;44310;48.106;12.008;2023-02-28T16:22:21;7.32;;;2.53;;
58518;SDS011;44310;48.106;12.008;2023-02-28T16:24:49;9.68;;;2.83;;
58518;SDS011;44310;48.106;12.008;2023-02-28T16:29:45;9.88;;;2.53;;
58518;SDS011;44310;48.106;12.008;2023-02-28T16:32:14;6.53;;;2.40;;
58518;SDS011;44310;48.106;12.008;2023-02-28T16:34:42;8.98;;;2.30;;
58518;SDS011;44310;48.106;12.008;2023-02-28T16:37:14;8.25;;;2.40;;
58518;SDS011;44310;48.106;12.008;2023-02-28T16:39:43;7.60;;;2.05;;
58518;SDS011;44310;48.106;12.008;2023-02-28T16:42:15;6.75;;;1.90;;
58518;SDS011;44310;48.106;12.008;2023-02-28T16:44:53;5.70;;;1.88;;
58518;SDS011;44310;48.106;12.008;2023-02-28T16:47:21;4.90;;;1.88;;
58518;SDS011;44310;48.106;12.008;2023-02-28T16:49:49;5.97;;;1.80;;
58518;SDS011;44310;48.106;12.008;2023-02-28T16:52:16;5.25;;;1.52;;
58518;SDS011;44310;48.106;12.008;2023-02-28T16:54:43;5.53;;;1.40;;
58518;SDS011;44310;48.106;12.008;2023-02-28T16:57:16;3.47;;;1.40;;
58518;SDS011;44310;48.106;12.008;2023-02-28T16:59:48;3.80;;;1.40;;
58518;SDS011;44310;48.106;12.008;2023-02-28T17:02:17;3.42;;;1.45;;
58518;SDS011;44310;48.106;12.008;2023-02-28T17:04:48;4.03;;;1.40;;
58518;SDS011;44310;48.106;12.008;2023-02-28T17:07:15;3.70;;;1.33;;
58518;SDS011;44310;48.106;12.008;2023-02-28T17:09:43;2.50;;;1.10;;